sensor_id;sensor_type;location;lat;lon;timestamp;pressure;altitude;pressure_sealevel;temperature;humidity
11415;BME280;5763;42.714;23.244;2023-11-21T00:01:07;94380.25;;;7.41;69.18
11415;BME280;5763;42.714;23.244;2023-11-21T00:03:34;94388.28;;;7.45;69.32
11415;BME280;5763;42.714;23.244;2023-11-21T00:06:01;94388.94;;;7.49;69.95
11415;BME280;5763;42.714;23.244;2023-11-21T00:08:28;94377.28;;;7.48;69.64
11415;BME280;5763;42.714;23.244;2023-11-21T00:10:55;94391.00;;;7.57;68.97
11415;BME280;5763;42.714;23.244;2023-11-21T00:13:22;94378.91;;;7.58;68.73
11415;BME280;5763;42.714;23.244;2023-11-21T00:15:50;94384.59;;;7.51;69.50
11415;BME280;5763;42.714;23.244;2023-11-21T00:18:17;94388.28;;;7.57;69.33
11415;BME280;5763;42.714;23.244;2023-11-21T00:20:44;94387.84;;;7.59;69.58
11415;BME280;5763;42.714;23.244;2023-11-21T00:23:12;94381.53;;;7.62;69.38
11415;BME280;5763;42.714;23.244;2023-11-21T00:25:38;94381.09;;;7.63;69.20
11415;BME280;5763;42.714;23.244;2023-11-21T00:28:05;94384.91;;;7.66;68.88
11415;BME280;5763;42.714;23.244;2023-11-21T00:30:32;94390.91;;;7.61;69.12
11415;BME280;5763;42.714;23.244;2023-11-21T00:33:01;94387.84;;;7.59;69.16
11415;BME280;5763;42.714;23.244;2023-11-21T00:35:27;94378.47;;;7.60;69.32
11415;BME280;5763;42.714;23.244;2023-11-21T00:37:54;94375.00;;;7.59;69.30
11415;BME280;5763;42.714;23.244;2023-11-21T00:40:21;94385.31;;;7.64;69.20
11415;BME280;5763;42.714;23.244;2023-11-21T00:42:48;94385.88;;;7.59;68.56
11415;BME280;5763;42.714;23.244;2023-11-21T00:45:15;94394.28;;;7.52;68.23
11415;BME280;5763;42.714;23.244;2023-11-21T00:47:42;94394.59;;;7.54;67.94
11415;BME280;5763;42.714;23.244;2023-11-21T00:50:11;94390.34;;;7.53;68.30
11415;BME280;5763;42.714;23.244;2023-11-21T00:52:38;94380.97;;;7.54;68.00
11415;BME280;5763;42.714;23.244;2023-11-21T00:55:05;94384.69;;;7.60;67.45
11415;BME280;5763;42.714;23.244;2023-11-21T00:57:33;94378.19;;;7.45;67.61
11415;BME280;5763;42.714;23.244;2023-11-21T01:00:00;94375.78;;;7.47;67.73
11415;BME280;5763;42.714;23.244;2023-11-21T01:02:26;94373.72;;;7.51;67.72
11415;BME280;5763;42.714;23.244;2023-11-21T01:04:54;94365.00;;;7.44;67.60
11415;BME280;5763;42.714;23.244;2023-11-21T01:07:22;94366.09;;;7.34;67.80
11415;BME280;5763;42.714;23.244;2023-11-21T01:09:49;94366.84;;;7.34;68.59
11415;BME280;5763;42.714;23.244;2023-11-21T01:12:16;94360.22;;;7.35;68.52
11415;BME280;5763;42.714;23.244;2023-11-21T01:14:44;94352.94;;;7.20;68.72
11415;BME280;5763;42.714;23.244;2023-11-21T01:17:11;94357.63;;;7.19;68.88
11415;BME280;5763;42.714;23.244;2023-11-21T01:19:38;94371.75;;;7.27;68.71
11415;BME280;5763;42.714;23.244;2023-11-21T01:22:04;94377.97;;;7.27;68.99
11415;BME280;5763;42.714;23.244;2023-11-21T01:24:33;94366.53;;;7.20;68.93
11415;BME280;5763;42.714;23.244;2023-11-21T01:26:59;94373.28;;;7.28;68.85
11415;BME280;5763;42.714;23.244;2023-11-21T01:29:26;94365.75;;;7.32;68.36
11415;BME280;5763;42.714;23.244;2023-11-21T01:31:53;94347.06;;;7.09;68.55
11415;BME280;5763;42.714;23.244;2023-11-21T01:34:20;94370.34;;;7.10;68.58
11415;BME280;5763;42.714;23.244;2023-11-21T01:36:47;94371.00;;;7.01;68.91
11415;BME280;5763;42.714;23.244;2023-11-21T01:39:14;94380.13;;;7.07;69.40
11415;BME280;5763;42.714;23.244;2023-11-21T01:41:43;94379.38;;;7.07;69.05
11415;BME280;5763;42.714;23.244;2023-11-21T01:44:11;94371.13;;;7.10;68.84
11415;BME280;5763;42.714;23.244;2023-11-21T01:46:38;94365.00;;;6.94;69.11
11415;BME280;5763;42.714;23.244;2023-11-21T01:49:07;94366.53;;;6.95;68.93
11415;BME280;5763;42.714;23.244;2023-11-21T01:51:35;94354.13;;;6.94;68.98
11415;BME280;5763;42.714;23.244;2023-11-21T01:54:03;94350.84;;;6.86;69.49
11415;BME280;5763;42.714;23.244;2023-11-21T01:56:30;94359.00;;;6.86;69.02
11415;BME280;5763;42.714;23.244;2023-11-21T01:58:59;94375.88;;;6.81;69.46
11415;BME280;5763;42.714;23.244;2023-11-21T02:01:26;94364.44;;;6.86;69.35
11415;BME280;5763;42.714;23.244;2023-11-21T02:03:53;94364.00;;;6.75;69.17
11415;BME280;5763;42.714;23.244;2023-11-21T02:06:21;94363.16;;;6.78;69.26
11415;BME280;5763;42.714;23.244;2023-11-21T02:08:49;94366.28;;;6.77;68.76
11415;BME280;5763;42.714;23.244;2023-11-21T02:11:16;94359.78;;;6.74;68.73
11415;BME280;5763;42.714;23.244;2023-11-21T02:13:44;94369.00;;;6.77;68.63
11415;BME280;5763;42.714;23.244;2023-11-21T02:16:14;94368.25;;;6.76;69.03
11415;BME280;5763;42.714;23.244;2023-11-21T02:18:41;94372.47;;;6.77;69.67
11415;BME280;5763;42.714;23.244;2023-11-21T02:21:08;94349.22;;;6.76;69.58
11415;BME280;5763;42.714;23.244;2023-11-21T02:23:37;94355.53;;;6.73;69.65
11415;BME280;5763;42.714;23.244;2023-11-21T02:26:07;94368.78;;;6.71;69.80
11415;BME280;5763;42.714;23.244;2023-11-21T02:28:35;94366.28;;;6.77;69.78
11415;BME280;5763;42.714;23.244;2023-11-21T02:31:02;94361.81;;;6.70;69.72
11415;BME280;5763;42.714;23.244;2023-11-21T02:33:30;94352.47;;;6.71;69.93
11415;BME280;5763;42.714;23.244;2023-11-21T02:35:59;94356.59;;;6.63;69.86
11415;BME280;5763;42.714;23.244;2023-11-21T02:38:26;94349.22;;;6.76;69.59
11415;BME280;5763;42.714;23.244;2023-11-21T02:40:55;94345.28;;;6.77;69.23
11415;BME280;5763;42.714;23.244;2023-11-21T02:43:22;94351.50;;;6.78;69.73
11415;BME280;5763;42.714;23.244;2023-11-21T02:45:49;94349.31;;;6.73;69.80
11415;BME280;5763;42.714;23.244;2023-11-21T02:48:16;94357.38;;;6.76;68.94
11415;BME280;5763;42.714;23.244;2023-11-21T02:50:42;94353.00;;;6.66;68.92
11415;BME280;5763;42.714;23.244;2023-11-21T02:53:09;94357.91;;;6.71;69.86
11415;BME280;5763;42.714;23.244;2023-11-21T02:55:38;94338.00;;;6.62;70.13
11415;BME280;5763;42.714;23.244;2023-11-21T02:58:06;94364.22;;;6.68;70.21
11415;BME280;5763;42.714;23.244;2023-11-21T03:00:33;94345.72;;;6.63;70.05
11415;BME280;5763;42.714;23.244;2023-11-21T03:02:59;94353.88;;;6.63;69.93
11415;BME280;5763;42.714;23.244;2023-11-21T03:05:26;94353.75;;;6.54;69.88
11415;BME280;5763;42.714;23.244;2023-11-21T03:07:54;94347.66;;;6.50;70.00
11415;BME280;5763;42.714;23.244;2023-11-21T03:10:21;94342.88;;;6.54;69.40
11415;BME280;5763;42.714;23.244;2023-11-21T03:12:48;94355.94;;;6.59;69.39
11415;BME280;5763;42.714;23.244;2023-11-21T03:15:16;94343.63;;;6.55;69.77
11415;BME280;5763;42.714;23.244;2023-11-21T03:17:43;94349.94;;;6.52;69.37
11415;BME280;5763;42.714;23.244;2023-11-21T03:20:11;94355.78;;;6.50;69.47
11415;BME280;5763;42.714;23.244;2023-11-21T03:22:39;94366.13;;;6.55;69.62
11415;BME280;5763;42.714;23.244;2023-11-21T03:25:07;94355.47;;;6.48;69.56
11415;BME280;5763;42.714;23.244;2023-11-21T03:27:36;94363.84;;;6.54;69.74
11415;BME280;5763;42.714;23.244;2023-11-21T03:30:05;94359.19;;;6.54;69.29
11415;BME280;5763;42.714;23.244;2023-11-21T03:32:34;94361.00;;;6.45;69.46
11415;BME280;5763;42.714;23.244;2023-11-21T03:35:01;94355.47;;;6.48;69.55
11415;BME280;5763;42.714;23.244;2023-11-21T03:37:29;94357.41;;;6.48;69.60
11415;BME280;5763;42.714;23.244;2023-11-21T03:39:56;94360.56;;;6.46;69.54
11415;BME280;5763;42.714;23.244;2023-11-21T03:42:23;94339.13;;;6.36;69.45
11415;BME280;5763;42.714;23.244;2023-11-21T03:44:51;94347.84;;;6.43;69.99
11415;BME280;5763;42.714;23.244;2023-11-21T03:47:18;94336.44;;;6.48;70.04
11415;BME280;5763;42.714;23.244;2023-11-21T03:49:47;94335.25;;;6.49;69.78
11415;BME280;5763;42.714;23.244;2023-11-21T03:52:13;94340.47;;;6.56;69.42
11415;BME280;5763;42.714;23.244;2023-11-21T03:54:41;94329.41;;;6.51;69.48
11415;BME280;5763;42.714;23.244;2023-11-21T03:57:08;94338.72;;;6.50;69.45
11415;BME280;5763;42.714;23.244;2023-11-21T03:59:36;94329.53;;;6.31;69.83
11415;BME280;5763;42.714;23.244;2023-11-21T04:02:03;94347.31;;;6.48;70.00
11415;BME280;5763;42.714;23.244;2023-11-21T04:04:30;94334.28;;;6.56;69.20
11415;BME280;5763;42.714;23.244;2023-11-21T04:06:58;94322.88;;;6.48;69.21
11415;BME280;5763;42.714;23.244;2023-11-21T04:09:26;94331.34;;;6.50;69.26
11415;BME280;5763;42.714;23.244;2023-11-21T04:11:53;94328.38;;;6.45;69.56
11415;BME280;5763;42.714;23.244;2023-11-21T04:14:21;94324.50;;;6.46;70.05
11415;BME280;5763;42.714;23.244;2023-11-21T04:16:48;94332.41;;;6.40;70.37
11415;BME280;5763;42.714;23.244;2023-11-21T04:19:15;94314.22;;;6.25;70.64
11415;BME280;5763;42.714;23.244;2023-11-21T04:21:42;94331.75;;;6.49;70.38
11415;BME280;5763;42.714;23.244;2023-11-21T04:24:11;94341.13;;;6.60;70.27
11415;BME280;5763;42.714;23.244;2023-11-21T04:26:38;94344.72;;;6.57;70.21
11415;BME280;5763;42.714;23.244;2023-11-21T04:29:05;94313.69;;;6.30;70.91
11415;BME280;5763;42.714;23.244;2023-11-21T04:31:31;94340.16;;;6.54;70.76
11415;BME280;5763;42.714;23.244;2023-11-21T04:33:58;94340.47;;;6.56;70.50
11415;BME280;5763;42.714;23.244;2023-11-21T04:36:26;94340.25;;;6.51;70.65
11415;BME280;5763;42.714;23.244;2023-11-21T04:38:53;94344.06;;;6.53;71.31
11415;BME280;5763;42.714;23.244;2023-11-21T04:41:21;94338.53;;;6.57;71.20
11415;BME280;5763;42.714;23.244;2023-11-21T04:43:48;94339.63;;;6.59;70.69
11415;BME280;5763;42.714;23.244;2023-11-21T04:46:32;94332.31;;;6.56;70.49
11415;BME280;5763;42.714;23.244;2023-11-21T04:48:59;94344.63;;;6.61;71.02
11415;BME280;5763;42.714;23.244;2023-11-21T04:51:26;94350.06;;;6.61;70.97
11415;BME280;5763;42.714;23.244;2023-11-21T04:53:53;94348.31;;;6.54;71.07
11415;BME280;5763;42.714;23.244;2023-11-21T04:56:21;94348.97;;;6.58;70.71
11415;BME280;5763;42.714;23.244;2023-11-21T04:58:48;94336.56;;;6.57;71.00
11415;BME280;5763;42.714;23.244;2023-11-21T05:01:15;94352.69;;;6.64;70.47
11415;BME280;5763;42.714;23.244;2023-11-21T05:03:43;94352.44;;;6.59;71.07
11415;BME280;5763;42.714;23.244;2023-11-21T05:06:10;94345.69;;;6.51;71.29
11415;BME280;5763;42.714;23.244;2023-11-21T05:08:37;94348.88;;;6.62;70.99
11415;BME280;5763;42.714;23.244;2023-11-21T05:11:04;94335.25;;;6.49;71.40
11415;BME280;5763;42.714;23.244;2023-11-21T05:13:35;94340.47;;;6.56;70.96
11415;BME280;5763;42.714;23.244;2023-11-21T05:16:03;94337.00;;;6.56;70.97
11415;BME280;5763;42.714;23.244;2023-11-21T05:18:32;94332.09;;;6.51;71.52
11415;BME280;5763;42.714;23.244;2023-11-21T05:21:00;94337.34;;;6.58;71.39
11415;BME280;5763;42.714;23.244;2023-11-21T05:23:27;94336.25;;;6.55;71.22
11415;BME280;5763;42.714;23.244;2023-11-21T05:25:54;94342.22;;;6.50;71.02
11415;BME280;5763;42.714;23.244;2023-11-21T05:28:21;94356.31;;;6.45;70.60
11415;BME280;5763;42.714;23.244;2023-11-21T05:30:50;94351.09;;;6.38;71.25
11415;BME280;5763;42.714;23.244;2023-11-21T05:33:16;94359.56;;;6.40;71.51
11415;BME280;5763;42.714;23.244;2023-11-21T05:35:44;94360.09;;;6.35;71.84
11415;BME280;5763;42.714;23.244;2023-11-21T05:38:12;94347.31;;;6.48;71.23
11415;BME280;5763;42.714;23.244;2023-11-21T05:40:39;94347.84;;;6.43;70.97
11415;BME280;5763;42.714;23.244;2023-11-21T05:43:06;94353.28;;;6.43;71.41
11415;BME280;5763;42.714;23.244;2023-11-21T05:45:33;94351.31;;;6.44;71.68
11415;BME280;5763;42.714;23.244;2023-11-21T05:48:01;94350.56;;;6.43;71.50
11415;BME280;5763;42.714;23.244;2023-11-21T05:50:29;94357.00;;;6.49;71.37
11415;BME280;5763;42.714;23.244;2023-11-21T05:52:56;94342.53;;;6.52;71.29
11415;BME280;5763;42.714;23.244;2023-11-21T05:55:25;94341.78;;;6.52;71.21
11415;BME280;5763;42.714;23.244;2023-11-21T05:57:52;94339.81;;;6.52;71.21
11415;BME280;5763;42.714;23.244;2023-11-21T06:00:19;94329.59;;;6.56;70.99
11415;BME280;5763;42.714;23.244;2023-11-21T06:02:47;94355.59;;;6.57;71.13
11415;BME280;5763;42.714;23.244;2023-11-21T06:05:17;94356.50;;;6.67;70.90
11415;BME280;5763;42.714;23.244;2023-11-21T06:07:44;94344.84;;;6.66;71.10
11415;BME280;5763;42.714;23.244;2023-11-21T06:10:12;94358.47;;;6.79;70.79
11415;BME280;5763;42.714;23.244;2023-11-21T06:12:40;94341.06;;;6.76;70.59
11415;BME280;5763;42.714;23.244;2023-11-21T06:15:09;94331.22;;;6.54;70.56
11415;BME280;5763;42.714;23.244;2023-11-21T06:17:39;94362.59;;;6.83;70.93
11415;BME280;5763;42.714;23.244;2023-11-21T06:20:07;94348.25;;;6.83;70.76
11415;BME280;5763;42.714;23.244;2023-11-21T06:22:37;94350.00;;;6.89;70.92
11415;BME280;5763;42.714;23.244;2023-11-21T06:25:05;94363.47;;;6.93;70.95
11415;BME280;5763;42.714;23.244;2023-11-21T06:27:33;94362.28;;;7.06;70.49
11415;BME280;5763;42.714;23.244;2023-11-21T06:30:00;94364.47;;;7.11;70.32
11415;BME280;5763;42.714;23.244;2023-11-21T06:32:27;94372.50;;;7.15;70.14
11415;BME280;5763;42.714;23.244;2023-11-21T06:34:55;94371.22;;;7.19;70.20
11415;BME280;5763;42.714;23.244;2023-11-21T06:37:25;94348.38;;;7.04;69.97
11415;BME280;5763;42.714;23.244;2023-11-21T06:39:53;94372.84;;;7.29;70.20
11415;BME280;5763;42.714;23.244;2023-11-21T06:42:20;94380.38;;;7.25;70.19
11415;BME280;5763;42.714;23.244;2023-11-21T06:44:47;94381.34;;;7.31;69.90
11415;BME280;5763;42.714;23.244;2023-11-21T06:47:17;94379.34;;;7.44;69.56
11415;BME280;5763;42.714;23.244;2023-11-21T06:49:46;94380.97;;;7.54;69.10
11415;BME280;5763;42.714;23.244;2023-11-21T06:52:13;94384.91;;;7.53;68.79
11415;BME280;5763;42.714;23.244;2023-11-21T06:54:41;94388.69;;;7.68;68.03
11415;BME280;5763;42.714;23.244;2023-11-21T06:57:09;94371.28;;;7.66;67.94
11415;BME280;5763;42.714;23.244;2023-11-21T06:59:36;94384.56;;;7.76;67.25
11415;BME280;5763;42.714;23.244;2023-11-21T07:02:03;94387.03;;;7.83;66.81
11415;BME280;5763;42.714;23.244;2023-11-21T07:04:31;94381.47;;;7.87;66.44
11415;BME280;5763;42.714;23.244;2023-11-21T07:06:58;94377.50;;;7.66;66.93
11415;BME280;5763;42.714;23.244;2023-11-21T07:09:26;94376.28;;;7.80;67.06
11415;BME280;5763;42.714;23.244;2023-11-21T07:11:53;94362.53;;;7.83;66.87
11415;BME280;5763;42.714;23.244;2023-11-21T07:14:21;94363.03;;;8.03;66.28
11415;BME280;5763;42.714;23.244;2023-11-21T07:16:48;94373.88;;;8.16;66.21
11415;BME280;5763;42.714;23.244;2023-11-21T07:19:16;94378.22;;;8.26;65.72
11415;BME280;5763;42.714;23.244;2023-11-21T07:21:43;94364.41;;;8.20;66.24
11415;BME280;5763;42.714;23.244;2023-11-21T07:24:10;94368.47;;;8.37;65.36
11415;BME280;5763;42.714;23.244;2023-11-21T07:26:37;94384.00;;;8.49;65.32
11415;BME280;5763;42.714;23.244;2023-11-21T07:29:04;94382.25;;;8.55;65.13
11415;BME280;5763;42.714;23.244;2023-11-21T07:31:33;94376.00;;;8.55;65.03
11415;BME280;5763;42.714;23.244;2023-11-21T07:34:00;94369.88;;;8.42;65.23
11415;BME280;5763;42.714;23.244;2023-11-21T07:36:27;94374.97;;;8.52;65.59
11415;BME280;5763;42.714;23.244;2023-11-21T07:38:54;94371.72;;;8.45;65.61
11415;BME280;5763;42.714;23.244;2023-11-21T07:41:21;94367.00;;;8.45;66.04
11415;BME280;5763;42.714;23.244;2023-11-21T07:43:48;94365.88;;;8.77;64.79
11415;BME280;5763;42.714;23.244;2023-11-21T07:46:15;94363.19;;;8.86;64.60
11415;BME280;5763;42.714;23.244;2023-11-21T07:48:43;94368.47;;;8.80;64.68
11415;BME280;5763;42.714;23.244;2023-11-21T07:51:11;94368.91;;;8.79;64.67
11415;BME280;5763;42.714;23.244;2023-11-21T07:53:38;94355.19;;;8.91;64.52
11415;BME280;5763;42.714;23.244;2023-11-21T07:56:08;94358.31;;;9.11;64.04
11415;BME280;5763;42.714;23.244;2023-11-21T07:58:36;94355.19;;;9.22;63.76
11415;BME280;5763;42.714;23.244;2023-11-21T08:01:03;94359.00;;;9.33;62.84
11415;BME280;5763;42.714;23.244;2023-11-21T08:03:30;94357.25;;;9.48;62.66
11415;BME280;5763;42.714;23.244;2023-11-21T08:05:59;94350.94;;;9.60;62.50
11415;BME280;5763;42.714;23.244;2023-11-21T08:08:26;94350.66;;;9.28;62.86
11415;BME280;5763;42.714;23.244;2023-11-21T08:10:53;94355.22;;;9.31;63.30
11415;BME280;5763;42.714;23.244;2023-11-21T08:13:23;94347.91;;;9.67;61.96
11415;BME280;5763;42.714;23.244;2023-11-21T08:15:50;94351.41;;;9.77;60.95
11415;BME280;5763;42.714;23.244;2023-11-21T08:18:17;94364.31;;;9.85;59.94
11415;BME280;5763;42.714;23.244;2023-11-21T08:20:44;94358.25;;;9.90;59.99
11415;BME280;5763;42.714;23.244;2023-11-21T08:23:14;94368.00;;;10.00;60.01
11415;BME280;5763;42.714;23.244;2023-11-21T08:25:43;94361.69;;;10.21;60.21
11415;BME280;5763;42.714;23.244;2023-11-21T08:28:10;94358.03;;;10.33;59.51
11415;BME280;5763;42.714;23.244;2023-11-21T08:30:37;94372.47;;;10.43;59.42
11415;BME280;5763;42.714;23.244;2023-11-21T08:33:04;94347.06;;;10.51;59.43
11415;BME280;5763;42.714;23.244;2023-11-21T08:35:32;94354.38;;;10.63;59.14
11415;BME280;5763;42.714;23.244;2023-11-21T08:37:59;94349.69;;;10.55;59.12
11415;BME280;5763;42.714;23.244;2023-11-21T08:40:27;94361.69;;;10.39;59.34
11415;BME280;5763;42.714;23.244;2023-11-21T08:42:54;94354.06;;;10.25;61.05
11415;BME280;5763;42.714;23.244;2023-11-21T08:45:21;94347.06;;;10.51;59.85
11415;BME280;5763;42.714;23.244;2023-11-21T08:47:48;94347.84;;;10.52;59.75
11415;BME280;5763;42.714;23.244;2023-11-21T08:50:15;94337.06;;;10.39;60.79
11415;BME280;5763;42.714;23.244;2023-11-21T08:52:44;94339.03;;;10.48;60.83
11415;BME280;5763;42.714;23.244;2023-11-21T08:55:11;94328.38;;;10.68;60.20
11415;BME280;5763;42.714;23.244;2023-11-21T08:57:41;94330.28;;;11.03;59.29
11415;BME280;5763;42.714;23.244;2023-11-21T09:00:11;94282.31;;;11.08;57.87
11415;BME280;5763;42.714;23.244;2023-11-21T09:02:39;94311.47;;;11.20;57.81
11415;BME280;5763;42.714;23.244;2023-11-21T09:05:07;94303.78;;;11.09;58.07
11415;BME280;5763;42.714;23.244;2023-11-21T09:07:35;94303.69;;;11.27;57.24
11415;BME280;5763;42.714;23.244;2023-11-21T09:10:02;94306.22;;;11.40;56.77
11415;BME280;5763;42.714;23.244;2023-11-21T09:12:29;94298.00;;;11.40;56.43
11415;BME280;5763;42.714;23.244;2023-11-21T09:14:59;94297.09;;;11.43;56.34
11415;BME280;5763;42.714;23.244;2023-11-21T09:17:26;94277.19;;;11.33;56.68
11415;BME280;5763;42.714;23.244;2023-11-21T09:19:52;94271.63;;;11.19;57.06
11415;BME280;5763;42.714;23.244;2023-11-21T09:22:19;94265.25;;;11.22;56.97
11415;BME280;5763;42.714;23.244;2023-11-21T09:24:46;94250.59;;;10.92;57.25
11415;BME280;5763;42.714;23.244;2023-11-21T09:27:13;94238.63;;;10.81;58.13
11415;BME280;5763;42.714;23.244;2023-11-21T09:29:40;94245.41;;;11.03;57.81
11415;BME280;5763;42.714;23.244;2023-11-21T09:32:09;94235.75;;;11.17;56.42
11415;BME280;5763;42.714;23.244;2023-11-21T09:34:39;94237.09;;;11.45;56.28
11415;BME280;5763;42.714;23.244;2023-11-21T09:37:07;94235.63;;;11.58;56.02
11415;BME280;5763;42.714;23.244;2023-11-21T09:39:35;94238.16;;;11.71;54.42
11415;BME280;5763;42.714;23.244;2023-11-21T09:42:06;94218.75;;;11.98;54.44
11415;BME280;5763;42.714;23.244;2023-11-21T09:44:44;94201.25;;;11.95;54.70
11415;BME280;5763;42.714;23.244;2023-11-21T09:47:15;94200.47;;;12.18;54.12
11415;BME280;5763;42.714;23.244;2023-11-21T09:49:44;94198.22;;;12.31;52.94
11415;BME280;5763;42.714;23.244;2023-11-21T09:52:17;94182.41;;;12.41;52.49
11415;BME280;5763;42.714;23.244;2023-11-21T09:54:45;94184.78;;;12.19;52.96
11415;BME280;5763;42.714;23.244;2023-11-21T09:57:13;94191.28;;;12.36;53.01
11415;BME280;5763;42.714;23.244;2023-11-21T09:59:41;94191.19;;;12.59;52.43
11415;BME280;5763;42.714;23.244;2023-11-21T10:02:09;94153.22;;;12.58;51.96
11415;BME280;5763;42.714;23.244;2023-11-21T10:04:40;94191.63;;;13.01;51.23
11415;BME280;5763;42.714;23.244;2023-11-21T10:07:07;94185.47;;;12.92;51.29
11415;BME280;5763;42.714;23.244;2023-11-21T10:09:36;94171.81;;;13.12;50.36
11415;BME280;5763;42.714;23.244;2023-11-21T10:12:06;94191.34;;;12.99;50.86
11415;BME280;5763;42.714;23.244;2023-11-21T10:14:35;94171.44;;;13.04;51.04
11415;BME280;5763;42.714;23.244;2023-11-21T10:17:04;94162.69;;;13.20;50.60
11415;BME280;5763;42.714;23.244;2023-11-21T10:19:35;94178.06;;;13.32;50.51
11415;BME280;5763;42.714;23.244;2023-11-21T10:22:05;94153.34;;;13.32;49.80
11415;BME280;5763;42.714;23.244;2023-11-21T10:24:32;94150.44;;;13.01;51.31
11415;BME280;5763;42.714;23.244;2023-11-21T10:26:59;94150.28;;;12.61;52.53
11415;BME280;5763;42.714;23.244;2023-11-21T10:29:29;94147.09;;;12.48;53.31
11415;BME280;5763;42.714;23.244;2023-11-21T10:31:56;94145.03;;;12.29;52.64
11415;BME280;5763;42.714;23.244;2023-11-21T10:34:24;94133.41;;;11.90;54.31
11415;BME280;5763;42.714;23.244;2023-11-21T10:36:53;94148.25;;;11.98;54.30
11415;BME280;5763;42.714;23.244;2023-11-21T10:39:25;94148.25;;;11.98;53.44
11415;BME280;5763;42.714;23.244;2023-11-21T10:41:56;94138.19;;;11.95;53.34
11415;BME280;5763;42.714;23.244;2023-11-21T10:44:23;94126.75;;;11.82;54.41
11415;BME280;5763;42.714;23.244;2023-11-21T10:46:51;94126.25;;;11.69;54.70
11415;BME280;5763;42.714;23.244;2023-11-21T10:49:21;94124.34;;;11.61;55.38
11415;BME280;5763;42.714;23.244;2023-11-21T10:51:50;94111.28;;;11.56;55.25
11415;BME280;5763;42.714;23.244;2023-11-21T10:54:19;94093.97;;;11.35;55.61
11415;BME280;5763;42.714;23.244;2023-11-21T10:56:49;94121.50;;;11.55;55.06
11415;BME280;5763;42.714;23.244;2023-11-21T10:59:17;94121.78;;;11.57;55.19
11415;BME280;5763;42.714;23.244;2023-11-21T11:01:46;94111.25;;;11.41;56.37
11415;BME280;5763;42.714;23.244;2023-11-21T11:04:15;94118.81;;;11.32;56.76
11415;BME280;5763;42.714;23.244;2023-11-21T11:06:44;94106.28;;;11.16;57.28
11415;BME280;5763;42.714;23.244;2023-11-21T11:09:13;94102.03;;;11.15;57.26
11415;BME280;5763;42.714;23.244;2023-11-21T11:11:42;94092.72;;;11.36;57.01
11415;BME280;5763;42.714;23.244;2023-11-21T11:14:12;94061.69;;;11.16;57.38
11415;BME280;5763;42.714;23.244;2023-11-21T11:16:40;94084.25;;;11.49;57.14
11415;BME280;5763;42.714;23.244;2023-11-21T11:19:08;94081.13;;;11.41;56.78
11415;BME280;5763;42.714;23.244;2023-11-21T11:21:46;94082.97;;;11.59;56.13
11415;BME280;5763;42.714;23.244;2023-11-21T11:24:45;94076.00;;;11.72;55.61
11415;BME280;5763;42.714;23.244;2023-11-21T11:27:23;94077.16;;;11.80;55.38
11415;BME280;5763;42.714;23.244;2023-11-21T11:30:06;94068.72;;;11.69;55.96
11415;BME280;5763;42.714;23.244;2023-11-21T11:32:43;94066.19;;;11.80;55.76
11415;BME280;5763;42.714;23.244;2023-11-21T11:35:19;94071.28;;;11.87;55.53
11415;BME280;5763;42.714;23.244;2023-11-21T11:37:51;94068.34;;;11.91;55.07
11415;BME280;5763;42.714;23.244;2023-11-21T11:40:18;94070.25;;;11.85;55.14
11415;BME280;5763;42.714;23.244;2023-11-21T11:42:56;94081.31;;;11.90;55.51
11415;BME280;5763;42.714;23.244;2023-11-21T11:45:32;94090.19;;;11.85;56.19
11415;BME280;5763;42.714;23.244;2023-11-21T11:48:00;94087.81;;;11.78;56.73
11415;BME280;5763;42.714;23.244;2023-11-21T11:50:27;94086.16;;;11.57;58.05
11415;BME280;5763;42.714;23.244;2023-11-21T11:52:58;94089.34;;;11.41;59.35
11415;BME280;5763;42.714;23.244;2023-11-21T11:55:38;94082.53;;;11.37;60.32
11415;BME280;5763;42.714;23.244;2023-11-21T11:58:06;94070.03;;;11.21;61.78
11415;BME280;5763;42.714;23.244;2023-11-21T12:00:35;94063.75;;;11.06;62.58
11415;BME280;5763;42.714;23.244;2023-11-21T12:03:07;94075.41;;;10.92;63.92
11415;BME280;5763;42.714;23.244;2023-11-21T12:05:35;94077.63;;;10.79;65.78
11415;BME280;5763;42.714;23.244;2023-11-21T12:08:05;94071.69;;;10.57;67.04
11415;BME280;5763;42.714;23.244;2023-11-21T12:10:34;94074.47;;;10.48;68.88
11415;BME280;5763;42.714;23.244;2023-11-21T12:13:02;94073.91;;;10.35;70.44
11415;BME280;5763;42.714;23.244;2023-11-21T12:15:30;94069.31;;;10.41;71.47
11415;BME280;5763;42.714;23.244;2023-11-21T12:17:59;94067.97;;;10.37;72.39
11415;BME280;5763;42.714;23.244;2023-11-21T12:20:26;94061.03;;;10.27;72.92
11415;BME280;5763;42.714;23.244;2023-11-21T12:22:54;94064.72;;;10.24;74.03
11415;BME280;5763;42.714;23.244;2023-11-21T12:25:22;94063.00;;;10.26;75.00
11415;BME280;5763;42.714;23.244;2023-11-21T12:27:50;94062.44;;;10.22;75.75
11415;BME280;5763;42.714;23.244;2023-11-21T12:30:18;94068.09;;;10.19;76.45
11415;BME280;5763;42.714;23.244;2023-11-21T12:32:48;94071.00;;;10.06;76.32
11415;BME280;5763;42.714;23.244;2023-11-21T12:35:15;94066.25;;;10.16;77.47
11415;BME280;5763;42.714;23.244;2023-11-21T12:37:45;94059.81;;;10.28;77.01
11415;BME280;5763;42.714;23.244;2023-11-21T12:40:13;94055.66;;;10.41;76.79
11415;BME280;5763;42.714;23.244;2023-11-21T12:42:41;94049.22;;;10.53;77.07
11415;BME280;5763;42.714;23.244;2023-11-21T12:45:15;94048.41;;;10.62;77.44
11415;BME280;5763;42.714;23.244;2023-11-21T12:47:46;94038.31;;;10.68;77.55
11415;BME280;5763;42.714;23.244;2023-11-21T12:50:15;94031.16;;;10.70;77.51
11415;BME280;5763;42.714;23.244;2023-11-21T12:52:42;94037.69;;;10.73;76.88
11415;BME280;5763;42.714;23.244;2023-11-21T12:55:15;94033.72;;;10.50;77.62
11415;BME280;5763;42.714;23.244;2023-11-21T12:57:43;94043.75;;;10.53;77.89
11415;BME280;5763;42.714;23.244;2023-11-21T13:00:12;94024.41;;;10.57;78.01
11415;BME280;5763;42.714;23.244;2023-11-21T13:02:52;94026.06;;;10.63;78.28
11415;BME280;5763;42.714;23.244;2023-11-21T13:05:28;94027.56;;;10.64;79.02
11415;BME280;5763;42.714;23.244;2023-11-21T13:07:56;94026.34;;;10.65;76.37
11415;BME280;5763;42.714;23.244;2023-11-21T13:10:24;94027.56;;;10.64;74.18
11415;BME280;5763;42.714;23.244;2023-11-21T13:12:53;94017.84;;;10.63;73.55